sensor_id;sensor_type;location;lat;lon;timestamp;P1;durP1;ratioP1;P2;durP2;ratioP2
25982;SDS011;13773;48.868;10.730;2023-12-04T00:01:47;23.83;;;12.73;;
25982;SDS011;13773;48.868;10.730;2023-12-04T00:04:13;31.03;;;14.13;;
25982;SDS011;13773;48.868;10.730;2023-12-04T00:06:41;22.70;;;13.10;;
25982;SDS011;13773;48.868;10.730;2023-12-04T00:09:07;34.50;;;15.40;;
25982;SDS011;13773;48.868;10.730;2023-12-04T00:11:32;25.20;;;12.97;;
25982;SDS011;13773;48.868;10.730;2023-12-04T00:13:58;25.97;;;12.87;;
25982;SDS011;13773;48.868;10.730;2023-12-04T00:16:24;34.00;;;15.47;;
25982;SDS011;13773;48.868;10.730;2023-12-04T00:18:50;27.17;;;13.50;;
25982;SDS011;13773;48.868;10.730;2023-12-04T00:21:15;29.30;;;14.93;;
25982;SDS011;13773;48.868;10.730;2023-12-04T00:23:41;28.97;;;13.83;;
25982;SDS011;13773;48.868;10.730;2023-12-04T00:26:07;27.57;;;13.27;;
25982;SDS011;13773;48.868;10.730;2023-12-04T00:28:35;12.37;;;7.07;;
25982;SDS011;13773;48.868;10.730;2023-12-04T00:31:02;24.07;;;13.27;;
25982;SDS011;13773;48.868;10.730;2023-12-04T00:33:27;26.87;;;13.93;;
25982;SDS011;13773;48.868;10.730;2023-12-04T00:35:53;22.80;;;10.50;;
25982;SDS011;13773;48.868;10.730;2023-12-04T00:38:19;28.67;;;15.40;;
25982;SDS011;13773;48.868;10.730;2023-12-04T00:40:44;29.40;;;14.77;;
25982;SDS011;13773;48.868;10.730;2023-12-04T00:43:10;28.03;;;13.90;;
25982;SDS011;13773;48.868;10.730;2023-12-04T00:45:36;25.23;;;12.90;;
25982;SDS011;13773;48.868;10.730;2023-12-04T00:48:02;24.93;;;14.07;;
25982;SDS011;13773;48.868;10.730;2023-12-04T00:50:28;26.67;;;14.60;;
25982;SDS011;13773;48.868;10.730;2023-12-04T00:52:53;27.17;;;14.20;;
25982;SDS011;13773;48.868;10.730;2023-12-04T00:55:19;27.43;;;13.80;;
25982;SDS011;13773;48.868;10.730;2023-12-04T00:57:45;22.63;;;11.40;;
25982;SDS011;13773;48.868;10.730;2023-12-04T01:00:11;29.37;;;15.50;;
25982;SDS011;13773;48.868;10.730;2023-12-04T01:02:37;18.47;;;9.83;;
25982;SDS011;13773;48.868;10.730;2023-12-04T01:05:03;30.77;;;15.63;;
25982;SDS011;13773;48.868;10.730;2023-12-04T01:07:29;27.97;;;14.07;;
25982;SDS011;13773;48.868;10.730;2023-12-04T01:09:55;22.77;;;11.87;;
25982;SDS011;13773;48.868;10.730;2023-12-04T01:12:20;27.73;;;12.60;;
25982;SDS011;13773;48.868;10.730;2023-12-04T01:14:46;27.50;;;12.87;;
25982;SDS011;13773;48.868;10.730;2023-12-04T01:17:12;34.57;;;15.90;;
25982;SDS011;13773;48.868;10.730;2023-12-04T01:19:38;30.33;;;14.20;;
25982;SDS011;13773;48.868;10.730;2023-12-04T01:22:04;25.87;;;13.97;;
25982;SDS011;13773;48.868;10.730;2023-12-04T01:24:30;31.70;;;15.03;;
25982;SDS011;13773;48.868;10.730;2023-12-04T01:26:56;17.67;;;10.70;;
25982;SDS011;13773;48.868;10.730;2023-12-04T01:29:21;33.63;;;15.10;;
25982;SDS011;13773;48.868;10.730;2023-12-04T01:31:47;27.67;;;13.67;;
25982;SDS011;13773;48.868;10.730;2023-12-04T01:34:13;33.07;;;15.57;;
25982;SDS011;13773;48.868;10.730;2023-12-04T01:36:41;27.80;;;14.37;;
25982;SDS011;13773;48.868;10.730;2023-12-04T01:39:07;30.30;;;14.63;;
25982;SDS011;13773;48.868;10.730;2023-12-04T01:41:33;26.30;;;14.90;;
25982;SDS011;13773;48.868;10.730;2023-12-04T01:43:58;30.90;;;15.27;;
25982;SDS011;13773;48.868;10.730;2023-12-04T01:46:24;32.60;;;14.20;;
25982;SDS011;13773;48.868;10.730;2023-12-04T01:48:50;28.90;;;14.07;;
25982;SDS011;13773;48.868;10.730;2023-12-04T01:51:17;28.67;;;14.57;;
25982;SDS011;13773;48.868;10.730;2023-12-04T01:53:44;25.80;;;12.83;;
25982;SDS011;13773;48.868;10.730;2023-12-04T01:56:10;25.57;;;14.13;;
25982;SDS011;13773;48.868;10.730;2023-12-04T01:58:38;24.00;;;14.43;;
25982;SDS011;13773;48.868;10.730;2023-12-04T02:01:04;37.57;;;14.60;;
25982;SDS011;13773;48.868;10.730;2023-12-04T02:03:30;23.50;;;12.57;;
25982;SDS011;13773;48.868;10.730;2023-12-04T02:05:57;33.33;;;17.50;;
25982;SDS011;13773;48.868;10.730;2023-12-04T02:08:26;28.77;;;15.17;;
25982;SDS011;13773;48.868;10.730;2023-12-04T02:10:52;25.03;;;13.90;;
25982;SDS011;13773;48.868;10.730;2023-12-04T02:13:17;29.13;;;14.33;;
25982;SDS011;13773;48.868;10.730;2023-12-04T02:15:43;27.67;;;14.00;;
25982;SDS011;13773;48.868;10.730;2023-12-04T02:18:11;28.00;;;13.10;;
25982;SDS011;13773;48.868;10.730;2023-12-04T02:20:37;27.23;;;14.70;;
25982;SDS011;13773;48.868;10.730;2023-12-04T02:23:03;24.20;;;13.10;;
25982;SDS011;13773;48.868;10.730;2023-12-04T02:25:29;31.47;;;14.40;;
25982;SDS011;13773;48.868;10.730;2023-12-04T02:27:56;21.83;;;12.87;;
25982;SDS011;13773;48.868;10.730;2023-12-04T02:30:26;23.13;;;12.23;;
25982;SDS011;13773;48.868;10.730;2023-12-04T02:32:54;22.03;;;11.60;;
25982;SDS011;13773;48.868;10.730;2023-12-04T02:35:22;28.73;;;13.57;;
25982;SDS011;13773;48.868;10.730;2023-12-04T02:37:51;24.60;;;12.73;;
25982;SDS011;13773;48.868;10.730;2023-12-04T02:40:18;26.73;;;14.50;;
25982;SDS011;13773;48.868;10.730;2023-12-04T02:42:44;25.80;;;14.03;;
25982;SDS011;13773;48.868;10.730;2023-12-04T02:45:10;23.03;;;12.60;;
25982;SDS011;13773;48.868;10.730;2023-12-04T02:47:35;26.37;;;14.47;;
25982;SDS011;13773;48.868;10.730;2023-12-04T02:50:01;27.57;;;14.10;;
25982;SDS011;13773;48.868;10.730;2023-12-04T02:52:27;34.10;;;16.27;;
25982;SDS011;13773;48.868;10.730;2023-12-04T02:54:52;18.80;;;11.27;;
25982;SDS011;13773;48.868;10.730;2023-12-04T02:57:18;24.33;;;12.10;;
25982;SDS011;13773;48.868;10.730;2023-12-04T02:59:45;30.23;;;14.17;;
25982;SDS011;13773;48.868;10.730;2023-12-04T03:02:10;23.43;;;13.33;;
25982;SDS011;13773;48.868;10.730;2023-12-04T03:04:36;29.30;;;15.40;;
25982;SDS011;13773;48.868;10.730;2023-12-04T03:07:02;23.43;;;13.77;;
25982;SDS011;13773;48.868;10.730;2023-12-04T03:09:28;28.07;;;13.93;;
25982;SDS011;13773;48.868;10.730;2023-12-04T03:11:53;27.93;;;14.60;;
25982;SDS011;13773;48.868;10.730;2023-12-04T03:14:19;26.97;;;13.23;;
25982;SDS011;13773;48.868;10.730;2023-12-04T03:16:45;24.30;;;14.27;;
25982;SDS011;13773;48.868;10.730;2023-12-04T03:19:10;23.07;;;13.70;;
25982;SDS011;13773;48.868;10.730;2023-12-04T03:21:36;27.27;;;15.33;;
25982;SDS011;13773;48.868;10.730;2023-12-04T03:24:02;28.40;;;13.67;;
25982;SDS011;13773;48.868;10.730;2023-12-04T03:26:27;32.67;;;16.00;;
25982;SDS011;13773;48.868;10.730;2023-12-04T03:28:53;26.70;;;13.73;;
25982;SDS011;13773;48.868;10.730;2023-12-04T03:31:19;25.77;;;14.77;;
25982;SDS011;13773;48.868;10.730;2023-12-04T03:33:46;26.67;;;14.60;;
25982;SDS011;13773;48.868;10.730;2023-12-04T03:36:12;28.17;;;14.03;;
25982;SDS011;13773;48.868;10.730;2023-12-04T03:38:37;25.10;;;13.13;;
25982;SDS011;13773;48.868;10.730;2023-12-04T03:41:03;22.20;;;13.83;;
25982;SDS011;13773;48.868;10.730;2023-12-04T03:43:29;22.30;;;9.93;;
25982;SDS011;13773;48.868;10.730;2023-12-04T03:45:54;25.97;;;15.57;;
25982;SDS011;13773;48.868;10.730;2023-12-04T03:48:20;25.23;;;14.10;;
25982;SDS011;13773;48.868;10.730;2023-12-04T03:50:45;25.97;;;14.87;;
25982;SDS011;13773;48.868;10.730;2023-12-04T03:53:11;25.63;;;13.80;;
25982;SDS011;13773;48.868;10.730;2023-12-04T03:55:37;30.50;;;15.00;;
25982;SDS011;13773;48.868;10.730;2023-12-04T03:58:03;25.33;;;14.23;;
25982;SDS011;13773;48.868;10.730;2023-12-04T04:00:28;21.67;;;12.90;;
25982;SDS011;13773;48.868;10.730;2023-12-04T04:02:54;29.20;;;14.47;;
25982;SDS011;13773;48.868;10.730;2023-12-04T04:05:20;26.20;;;13.27;;
25982;SDS011;13773;48.868;10.730;2023-12-04T04:07:45;28.13;;;13.93;;
25982;SDS011;13773;48.868;10.730;2023-12-04T04:10:11;22.43;;;13.73;;
25982;SDS011;13773;48.868;10.730;2023-12-04T04:12:37;22.37;;;12.53;;
25982;SDS011;13773;48.868;10.730;2023-12-04T04:15:03;23.37;;;13.57;;
25982;SDS011;13773;48.868;10.730;2023-12-04T04:17:29;27.97;;;14.17;;
25982;SDS011;13773;48.868;10.730;2023-12-04T04:19:54;30.63;;;15.30;;
25982;SDS011;13773;48.868;10.730;2023-12-04T04:22:21;25.03;;;14.60;;
25982;SDS011;13773;48.868;10.730;2023-12-04T04:24:47;24.70;;;12.73;;
25982;SDS011;13773;48.868;10.730;2023-12-04T04:27:14;21.97;;;12.37;;
25982;SDS011;13773;48.868;10.730;2023-12-04T04:29:39;23.37;;;12.27;;
25982;SDS011;13773;48.868;10.730;2023-12-04T04:32:05;25.27;;;14.63;;
25982;SDS011;13773;48.868;10.730;2023-12-04T04:34:31;27.47;;;12.50;;
25982;SDS011;13773;48.868;10.730;2023-12-04T04:36:57;29.17;;;15.07;;
25982;SDS011;13773;48.868;10.730;2023-12-04T04:39:22;28.00;;;14.27;;
25982;SDS011;13773;48.868;10.730;2023-12-04T04:41:48;19.00;;;10.87;;
25982;SDS011;13773;48.868;10.730;2023-12-04T04:44:14;22.03;;;12.30;;
25982;SDS011;13773;48.868;10.730;2023-12-04T04:46:40;22.40;;;12.13;;
25982;SDS011;13773;48.868;10.730;2023-12-04T04:49:05;26.87;;;13.67;;
25982;SDS011;13773;48.868;10.730;2023-12-04T04:51:31;24.67;;;12.53;;
25982;SDS011;13773;48.868;10.730;2023-12-04T04:53:58;22.80;;;12.60;;
25982;SDS011;13773;48.868;10.730;2023-12-04T04:56:24;19.27;;;10.33;;
25982;SDS011;13773;48.868;10.730;2023-12-04T04:58:50;19.77;;;11.27;;
25982;SDS011;13773;48.868;10.730;2023-12-04T05:01:16;22.90;;;13.03;;
25982;SDS011;13773;48.868;10.730;2023-12-04T05:03:42;23.00;;;11.73;;
25982;SDS011;13773;48.868;10.730;2023-12-04T05:06:07;21.87;;;11.93;;
25982;SDS011;13773;48.868;10.730;2023-12-04T05:08:33;15.83;;;9.70;;
25982;SDS011;13773;48.868;10.730;2023-12-04T05:10:59;25.10;;;13.10;;
25982;SDS011;13773;48.868;10.730;2023-12-04T05:13:25;22.20;;;12.20;;
25982;SDS011;13773;48.868;10.730;2023-12-04T05:15:51;18.83;;;11.30;;
25982;SDS011;13773;48.868;10.730;2023-12-04T05:18:16;22.43;;;12.10;;
25982;SDS011;13773;48.868;10.730;2023-12-04T05:20:42;22.27;;;11.33;;
25982;SDS011;13773;48.868;10.730;2023-12-04T05:23:08;18.33;;;9.97;;
25982;SDS011;13773;48.868;10.730;2023-12-04T05:25:33;19.40;;;10.83;;
25982;SDS011;13773;48.868;10.730;2023-12-04T05:27:59;23.60;;;11.57;;
25982;SDS011;13773;48.868;10.730;2023-12-04T05:30:25;16.47;;;9.53;;
25982;SDS011;13773;48.868;10.730;2023-12-04T05:32:50;24.33;;;12.90;;
25982;SDS011;13773;48.868;10.730;2023-12-04T05:35:16;22.90;;;11.20;;
25982;SDS011;13773;48.868;10.730;2023-12-04T05:37:42;20.60;;;11.77;;
25982;SDS011;13773;48.868;10.730;2023-12-04T05:40:08;16.07;;;10.43;;
25982;SDS011;13773;48.868;10.730;2023-12-04T05:42:35;19.53;;;11.53;;
25982;SDS011;13773;48.868;10.730;2023-12-04T05:45:01;23.63;;;11.63;;
25982;SDS011;13773;48.868;10.730;2023-12-04T05:47:27;23.60;;;11.93;;
25982;SDS011;13773;48.868;10.730;2023-12-04T05:49:53;22.40;;;11.77;;
25982;SDS011;13773;48.868;10.730;2023-12-04T05:52:19;19.93;;;11.83;;
25982;SDS011;13773;48.868;10.730;2023-12-04T05:54:44;22.90;;;11.73;;
25982;SDS011;13773;48.868;10.730;2023-12-04T05:57:10;21.43;;;11.03;;
25982;SDS011;13773;48.868;10.730;2023-12-04T05:59:36;21.77;;;11.90;;
25982;SDS011;13773;48.868;10.730;2023-12-04T06:02:01;16.50;;;10.23;;
25982;SDS011;13773;48.868;10.730;2023-12-04T06:04:27;19.30;;;9.87;;
25982;SDS011;13773;48.868;10.730;2023-12-04T06:06:53;21.03;;;12.60;;
25982;SDS011;13773;48.868;10.730;2023-12-04T06:09:19;17.13;;;9.70;;
25982;SDS011;13773;48.868;10.730;2023-12-04T06:11:44;19.33;;;12.30;;
25982;SDS011;13773;48.868;10.730;2023-12-04T06:14:10;21.37;;;12.27;;
25982;SDS011;13773;48.868;10.730;2023-12-04T06:16:36;18.80;;;11.60;;
25982;SDS011;13773;48.868;10.730;2023-12-04T06:19:02;22.07;;;12.27;;
25982;SDS011;13773;48.868;10.730;2023-12-04T06:21:29;16.70;;;9.77;;
25982;SDS011;13773;48.868;10.730;2023-12-04T06:23:55;21.87;;;11.37;;
25982;SDS011;13773;48.868;10.730;2023-12-04T06:26:22;20.10;;;11.60;;
25982;SDS011;13773;48.868;10.730;2023-12-04T06:28:48;20.27;;;10.60;;
25982;SDS011;13773;48.868;10.730;2023-12-04T06:31:14;16.57;;;7.50;;
25982;SDS011;13773;48.868;10.730;2023-12-04T06:33:40;16.83;;;9.83;;
25982;SDS011;13773;48.868;10.730;2023-12-04T06:36:06;17.07;;;9.90;;
25982;SDS011;13773;48.868;10.730;2023-12-04T06:38:32;21.67;;;11.63;;
25982;SDS011;13773;48.868;10.730;2023-12-04T06:41:00;17.63;;;9.60;;
25982;SDS011;13773;48.868;10.730;2023-12-04T06:43:26;20.10;;;10.93;;
25982;SDS011;13773;48.868;10.730;2023-12-04T06:45:53;19.23;;;10.73;;
25982;SDS011;13773;48.868;10.730;2023-12-04T06:48:22;18.63;;;10.27;;
25982;SDS011;13773;48.868;10.730;2023-12-04T06:50:48;18.87;;;11.03;;
25982;SDS011;13773;48.868;10.730;2023-12-04T06:53:13;16.00;;;10.07;;
25982;SDS011;13773;48.868;10.730;2023-12-04T06:55:39;17.43;;;10.40;;
25982;SDS011;13773;48.868;10.730;2023-12-04T06:58:05;16.50;;;9.30;;
25982;SDS011;13773;48.868;10.730;2023-12-04T07:00:31;18.40;;;10.93;;
25982;SDS011;13773;48.868;10.730;2023-12-04T07:02:56;18.63;;;10.57;;
25982;SDS011;13773;48.868;10.730;2023-12-04T07:05:22;17.17;;;9.40;;
25982;SDS011;13773;48.868;10.730;2023-12-04T07:07:48;16.07;;;10.07;;
25982;SDS011;13773;48.868;10.730;2023-12-04T07:10:14;16.03;;;10.90;;
25982;SDS011;13773;48.868;10.730;2023-12-04T07:12:40;19.23;;;11.20;;
25982;SDS011;13773;48.868;10.730;2023-12-04T07:15:07;19.63;;;10.60;;
25982;SDS011;13773;48.868;10.730;2023-12-04T07:17:34;21.17;;;11.83;;
25982;SDS011;13773;48.868;10.730;2023-12-04T07:20:03;21.53;;;11.10;;
25982;SDS011;13773;48.868;10.730;2023-12-04T07:22:32;21.37;;;11.40;;
25982;SDS011;13773;48.868;10.730;2023-12-04T07:24:58;16.27;;;10.27;;
25982;SDS011;13773;48.868;10.730;2023-12-04T07:27:24;19.83;;;10.23;;
25982;SDS011;13773;48.868;10.730;2023-12-04T07:29:50;19.60;;;10.83;;
25982;SDS011;13773;48.868;10.730;2023-12-04T07:32:16;17.53;;;10.07;;
25982;SDS011;13773;48.868;10.730;2023-12-04T07:34:43;17.63;;;10.70;;
25982;SDS011;13773;48.868;10.730;2023-12-04T07:37:08;19.30;;;10.93;;
25982;SDS011;13773;48.868;10.730;2023-12-04T07:39:34;17.47;;;9.87;;
25982;SDS011;13773;48.868;10.730;2023-12-04T07:42:00;26.03;;;12.77;;
25982;SDS011;13773;48.868;10.730;2023-12-04T07:44:26;20.50;;;11.07;;
25982;SDS011;13773;48.868;10.730;2023-12-04T07:46:51;22.70;;;12.23;;
25982;SDS011;13773;48.868;10.730;2023-12-04T07:49:17;17.47;;;11.37;;
25982;SDS011;13773;48.868;10.730;2023-12-04T07:51:43;19.53;;;11.20;;
25982;SDS011;13773;48.868;10.730;2023-12-04T07:54:08;22.17;;;12.23;;
25982;SDS011;13773;48.868;10.730;2023-12-04T07:56:34;22.50;;;12.50;;
25982;SDS011;13773;48.868;10.730;2023-12-04T07:58:59;22.67;;;13.07;;
25982;SDS011;13773;48.868;10.730;2023-12-04T08:01:25;28.70;;;13.77;;
25982;SDS011;13773;48.868;10.730;2023-12-04T08:03:51;27.97;;;14.70;;
25982;SDS011;13773;48.868;10.730;2023-12-04T08:06:16;21.93;;;12.13;;
25982;SDS011;13773;48.868;10.730;2023-12-04T08:08:44;22.20;;;12.23;;
25982;SDS011;13773;48.868;10.730;2023-12-04T08:11:10;22.67;;;12.50;;
25982;SDS011;13773;48.868;10.730;2023-12-04T08:13:38;23.93;;;12.63;;
25982;SDS011;13773;48.868;10.730;2023-12-04T08:16:04;23.33;;;12.10;;
25982;SDS011;13773;48.868;10.730;2023-12-04T08:18:30;21.90;;;12.23;;
25982;SDS011;13773;48.868;10.730;2023-12-04T08:20:56;18.57;;;10.97;;
25982;SDS011;13773;48.868;10.730;2023-12-04T08:23:24;20.37;;;12.67;;
25982;SDS011;13773;48.868;10.730;2023-12-04T08:25:50;19.03;;;11.47;;
25982;SDS011;13773;48.868;10.730;2023-12-04T08:28:16;19.37;;;12.30;;
25982;SDS011;13773;48.868;10.730;2023-12-04T08:30:41;21.07;;;11.83;;
25982;SDS011;13773;48.868;10.730;2023-12-04T08:33:07;20.20;;;11.10;;
25982;SDS011;13773;48.868;10.730;2023-12-04T08:35:32;22.60;;;12.27;;
25982;SDS011;13773;48.868;10.730;2023-12-04T08:37:58;21.93;;;12.07;;
25982;SDS011;13773;48.868;10.730;2023-12-04T08:40:24;22.47;;;11.03;;
25982;SDS011;13773;48.868;10.730;2023-12-04T08:42:49;20.47;;;12.00;;
25982;SDS011;13773;48.868;10.730;2023-12-04T08:45:15;20.20;;;11.60;;
25982;SDS011;13773;48.868;10.730;2023-12-04T08:47:41;16.97;;;11.07;;
25982;SDS011;13773;48.868;10.730;2023-12-04T08:50:06;25.13;;;12.37;;
25982;SDS011;13773;48.868;10.730;2023-12-04T08:52:32;19.90;;;10.80;;
25982;SDS011;13773;48.868;10.730;2023-12-04T08:54:59;19.17;;;10.57;;
25982;SDS011;13773;48.868;10.730;2023-12-04T08:57:25;19.77;;;11.80;;
25982;SDS011;13773;48.868;10.730;2023-12-04T08:59:50;20.80;;;12.50;;
25982;SDS011;13773;48.868;10.730;2023-12-04T09:02:16;22.17;;;12.60;;
25982;SDS011;13773;48.868;10.730;2023-12-04T09:04:42;20.93;;;12.10;;
25982;SDS011;13773;48.868;10.730;2023-12-04T09:07:08;20.50;;;11.93;;
25982;SDS011;13773;48.868;10.730;2023-12-04T09:09:34;18.80;;;11.27;;
25982;SDS011;13773;48.868;10.730;2023-12-04T09:11:59;23.63;;;12.47;;
25982;SDS011;13773;48.868;10.730;2023-12-04T09:14:25;17.57;;;11.10;;
25982;SDS011;13773;48.868;10.730;2023-12-04T09:16:52;19.97;;;11.93;;
25982;SDS011;13773;48.868;10.730;2023-12-04T09:19:18;19.17;;;11.17;;
25982;SDS011;13773;48.868;10.730;2023-12-04T09:21:44;24.53;;;13.00;;
25982;SDS011;13773;48.868;10.730;2023-12-04T09:24:10;19.17;;;10.90;;
25982;SDS011;13773;48.868;10.730;2023-12-04T09:26:35;17.90;;;11.13;;
25982;SDS011;13773;48.868;10.730;2023-12-04T09:29:01;17.50;;;11.27;;
25982;SDS011;13773;48.868;10.730;2023-12-04T09:31:27;17.60;;;10.77;;
25982;SDS011;13773;48.868;10.730;2023-12-04T09:33:53;18.80;;;10.93;;
25982;SDS011;13773;48.868;10.730;2023-12-04T09:36:19;19.40;;;11.10;;
25982;SDS011;13773;48.868;10.730;2023-12-04T09:38:44;20.10;;;11.87;;
25982;SDS011;13773;48.868;10.730;2023-12-04T09:41:10;19.40;;;11.20;;
25982;SDS011;13773;48.868;10.730;2023-12-04T09:43:37;18.30;;;10.93;;
25982;SDS011;13773;48.868;10.730;2023-12-04T09:46:03;19.07;;;11.20;;
25982;SDS011;13773;48.868;10.730;2023-12-04T09:48:29;20.13;;;11.77;;
25982;SDS011;13773;48.868;10.730;2023-12-04T09:50:57;19.87;;;12.07;;
25982;SDS011;13773;48.868;10.730;2023-12-04T09:53:24;18.70;;;10.83;;
25982;SDS011;13773;48.868;10.730;2023-12-04T09:55:51;16.57;;;10.33;;
25982;SDS011;13773;48.868;10.730;2023-12-04T09:58:19;17.93;;;10.40;;
25982;SDS011;13773;48.868;10.730;2023-12-04T10:00:46;19.07;;;11.10;;
25982;SDS011;13773;48.868;10.730;2023-12-04T10:03:13;16.43;;;10.27;;
25982;SDS011;13773;48.868;10.730;2023-12-04T10:05:44;19.03;;;11.53;;
25982;SDS011;13773;48.868;10.730;2023-12-04T10:08:10;18.00;;;11.20;;
25982;SDS011;13773;48.868;10.730;2023-12-04T10:10:36;16.53;;;10.03;;
25982;SDS011;13773;48.868;10.730;2023-12-04T10:13:02;19.33;;;11.47;;
25982;SDS011;13773;48.868;10.730;2023-12-04T10:15:28;22.83;;;11.67;;
25982;SDS011;13773;48.868;10.730;2023-12-04T10:17:54;17.83;;;11.60;;
25982;SDS011;13773;48.868;10.730;2023-12-04T10:20:19;19.87;;;11.00;;
25982;SDS011;13773;48.868;10.730;2023-12-04T10:22:56;16.63;;;10.50;;
25982;SDS011;13773;48.868;10.730;2023-12-04T10:25:27;19.50;;;11.67;;
25982;SDS011;13773;48.868;10.730;2023-12-04T10:27:54;14.73;;;9.87;;
25982;SDS011;13773;48.868;10.730;2023-12-04T10:30:37;18.63;;;10.63;;
25982;SDS011;13773;48.868;10.730;2023-12-04T10:33:03;19.37;;;10.13;;
25982;SDS011;13773;48.868;10.730;2023-12-04T10:35:31;19.77;;;10.53;;
25982;SDS011;13773;48.868;10.730;2023-12-04T10:37:57;16.00;;;9.60;;
25982;SDS011;13773;48.868;10.730;2023-12-04T10:40:28;18.93;;;11.10;;
25982;SDS011;13773;48.868;10.730;2023-12-04T10:45:49;18.10;;;10.17;;
25982;SDS011;13773;48.868;10.730;2023-12-04T10:48:17;19.57;;;10.37;;
25982;SDS011;13773;48.868;10.730;2023-12-04T10:50:44;18.83;;;10.97;;
25982;SDS011;13773;48.868;10.730;2023-12-04T10:53:12;16.10;;;10.37;;
25982;SDS011;13773;48.868;10.730;2023-12-04T10:55:39;16.20;;;10.37;;
25982;SDS011;13773;48.868;10.730;2023-12-04T10:58:07;16.20;;;10.40;;
25982;SDS011;13773;48.868;10.730;2023-12-04T11:00:35;16.77;;;10.53;;
25982;SDS011;13773;48.868;10.730;2023-12-04T11:03:08;16.80;;;10.53;;
25982;SDS011;13773;48.868;10.730;2023-12-04T11:05:37;19.43;;;11.00;;
25982;SDS011;13773;48.868;10.730;2023-12-04T11:08:06;16.07;;;11.13;;
25982;SDS011;13773;48.868;10.730;2023-12-04T11:10:36;19.70;;;11.43;;
25982;SDS011;13773;48.868;10.730;2023-12-04T11:13:30;15.50;;;9.90;;
25982;SDS011;13773;48.868;10.730;2023-12-04T11:16:01;17.93;;;10.33;;
25982;SDS011;13773;48.868;10.730;2023-12-04T11:18:30;17.30;;;11.33;;
25982;SDS011;13773;48.868;10.730;2023-12-04T11:21:04;21.03;;;12.33;;
25982;SDS011;13773;48.868;10.730;2023-12-04T11:23:35;16.00;;;10.83;;
25982;SDS011;13773;48.868;10.730;2023-12-04T11:26:05;19.77;;;12.80;;
25982;SDS011;13773;48.868;10.730;2023-12-04T11:28:32;25.03;;;13.03;;
25982;SDS011;13773;48.868;10.730;2023-12-04T11:31:01;20.47;;;13.60;;
25982;SDS011;13773;48.868;10.730;2023-12-04T11:33:27;24.80;;;14.07;;
25982;SDS011;13773;48.868;10.730;2023-12-04T11:35:53;22.70;;;15.17;;
25982;SDS011;13773;48.868;10.730;2023-12-04T11:38:34;22.40;;;13.93;;
25982;SDS011;13773;48.868;10.730;2023-12-04T11:41:05;23.90;;;14.97;;
25982;SDS011;13773;48.868;10.730;2023-12-04T11:43:42;23.10;;;13.77;;
25982;SDS011;13773;48.868;10.730;2023-12-04T11:46:08;23.93;;;13.93;;
25982;SDS011;13773;48.868;10.730;2023-12-04T11:48:36;22.90;;;14.70;;
25982;SDS011;13773;48.868;10.730;2023-12-04T11:51:02;21.53;;;13.83;;
25982;SDS011;13773;48.868;10.730;2023-12-04T11:53:30;20.43;;;13.27;;
25982;SDS011;13773;48.868;10.730;2023-12-04T11:55:55;20.13;;;12.57;;
25982;SDS011;13773;48.868;10.730;2023-12-04T11:58:24;20.83;;;13.53;;
25982;SDS011;13773;48.868;10.730;2023-12-04T12:00:51;19.30;;;12.50;;
25982;SDS011;13773;48.868;10.730;2023-12-04T12:03:17;17.23;;;11.40;;
25982;SDS011;13773;48.868;10.730;2023-12-04T12:05:46;21.43;;;12.13;;
25982;SDS011;13773;48.868;10.730;2023-12-04T12:08:15;17.83;;;11.77;;
25982;SDS011;13773;48.868;10.730;2023-12-04T12:10:40;20.90;;;12.07;;
25982;SDS011;13773;48.868;10.730;2023-12-04T12:13:06;18.70;;;11.57;;
25982;SDS011;13773;48.868;10.730;2023-12-04T12:15:32;20.20;;;10.73;;
25982;SDS011;13773;48.868;10.730;2023-12-04T12:17:58;18.83;;;11.00;;
25982;SDS011;13773;48.868;10.730;2023-12-04T12:20:24;20.70;;;11.63;;
25982;SDS011;13773;48.868;10.730;2023-12-04T12:22:50;16.10;;;10.67;;
25982;SDS011;13773;48.868;10.730;2023-12-04T12:25:17;20.67;;;11.67;;
25982;SDS011;13773;48.868;10.730;2023-12-04T12:27:43;17.97;;;12.10;;
25982;SDS011;13773;48.868;10.730;2023-12-04T12:30:10;17.63;;;11.10;;
25982;SDS011;13773;48.868;10.730;2023-12-04T12:32:35;16.37;;;10.20;;
25982;SDS011;13773;48.868;10.730;2023-12-04T12:35:01;16.97;;;10.40;;
25982;SDS011;13773;48.868;10.730;2023-12-04T12:37:28;17.00;;;11.23;;
25982;SDS011;13773;48.868;10.730;2023-12-04T12:39:54;17.10;;;10.70;;
25982;SDS011;13773;48.868;10.730;2023-12-04T12:42:21;16.13;;;10.57;;
25982;SDS011;13773;48.868;10.730;2023-12-04T12:44:47;15.00;;;9.73;;
25982;SDS011;13773;48.868;10.730;2023-12-04T12:47:14;16.33;;;10.10;;
25982;SDS011;13773;48.868;10.730;2023-12-04T12:49:40;18.10;;;11.30;;
25982;SDS011;13773;48.868;10.730;2023-12-04T12:52:06;19.83;;;10.50;;
25982;SDS011;13773;48.868;10.730;2023-12-04T12:54:38;19.03;;;10.63;;
25982;SDS011;13773;48.868;10.730;2023-12-04T12:57:05;15.97;;;10.20;;
25982;SDS011;13773;48.868;10.730;2023-12-04T12:59:32;16.00;;;10.60;;
25982;SDS011;13773;48.868;10.730;2023-12-04T13:01:57;17.93;;;11.07;;
25982;SDS011;13773;48.868;10.730;2023-12-04T13:04:25;15.33;;;10.00;;
25982;SDS011;13773;48.868;10.730;2023-12-04T13:06:51;16.93;;;11.47;;
25982;SDS011;13773;48.868;10.730;2023-12-04T13:09:16;18.33;;;11.17;;
25982;SDS011;13773;48.868;10.730;2023-12-04T13:11:47;15.03;;;10.23;;
25982;SDS011;13773;48.868;10.730;2023-12-04T13:14:14;19.10;;;11.20;;
25982;SDS011;13773;48.868;10.730;2023-12-04T13:16:39;17.10;;;11.23;;
25982;SDS011;13773;48.868;10.730;2023-12-04T13:19:05;18.57;;;11.20;;
25982;SDS011;13773;48.868;10.730;2023-12-04T13:21:31;20.77;;;11.37;;
25982;SDS011;13773;48.868;10.730;2023-12-04T13:23:57;21.13;;;13.10;;
25982;SDS011;13773;48.868;10.730;2023-12-04T13:26:24;17.13;;;10.67;;
25982;SDS011;13773;48.868;10.730;2023-12-04T13:28:49;16.77;;;10.93;;
25982;SDS011;13773;48.868;10.730;2023-12-04T13:31:16;18.03;;;11.47;;
25982;SDS011;13773;48.868;10.730;2023-12-04T13:33:42;17.07;;;11.10;;
25982;SDS011;13773;48.868;10.730;2023-12-04T13:36:08;14.10;;;8.87;;
25982;SDS011;13773;48.868;10.730;2023-12-04T13:38:34;19.83;;;11.60;;
25982;SDS011;13773;48.868;10.730;2023-12-04T13:41:00;18.70;;;11.70;;
25982;SDS011;13773;48.868;10.730;2023-12-04T13:43:44;20.53;;;11.23;;
25982;SDS011;13773;48.868;10.730;2023-12-04T13:46:15;21.80;;;12.40;;
25982;SDS011;13773;48.868;10.730;2023-12-04T13:48:41;20.80;;;11.70;;
25982;SDS011;13773;48.868;10.730;2023-12-04T13:51:10;20.93;;;11.70;;
25982;SDS011;13773;48.868;10.730;2023-12-04T13:53:36;16.97;;;11.20;;
25982;SDS011;13773;48.868;10.730;2023-12-04T13:56:07;20.13;;;11.60;;
25982;SDS011;13773;48.868;10.730;2023-12-04T13:58:45;16.83;;;11.30;;
25982;SDS011;13773;48.868;10.730;2023-12-04T14:01:14;18.83;;;11.83;;
25982;SDS011;13773;48.868;10.730;2023-12-04T14:03:43;20.27;;;11.97;;
25982;SDS011;13773;48.868;10.730;2023-12-04T14:06:09;20.27;;;12.07;;
25982;SDS011;13773;48.868;10.730;2023-12-04T14:08:36;21.87;;;12.57;;